Time;durP1;ratioP1;P1;durP2;ratioP2;P2;SDS_P1;SDS_P2;PMS_P1;PMS_P2;Temp;Humidity;BMP_temperature;BMP_pressure;BME280_temperature;BME280_humidity;BME280_pressure;Samples;Min_cycle;Max_cycle;Signal;HPM_P1;HPM_P2
2023/10/19 00:02:33;;;;;;;71.60;43.70;;;;;;;2.76;83.04;98181.11;224829;1289;24898;-78
2023/10/19 00:14:15;;;;;;;66.90;39.80;;;;;;;2.83;83.14;98157.56;224848;1289;22589;-79
2023/10/19 00:19:57;;;;;;;58.10;38.90;;;;;;;2.86;83.26;98150.18;224781;1289;23855;-80
2023/10/19 00:25:30;;;;;;;60.50;37.60;;;;;;;2.87;83.15;98136.98;224805;1289;22543;-79
2023/10/19 00:31:51;;;;;;;57.10;38.00;;;;;;;2.87;83.14;98130.79;224812;1289;22549;-78
2023/10/19 00:38:17;;;;;;;53.40;35.00;;;;;;;2.84;83.15;98122.36;224743;1289;25408;-78
2023/10/19 00:45:04;;;;;;;49.50;32.30;;;;;;;2.82;83.19;98107.41;224875;1289;22549;-78
2023/10/19 00:50:53;;;;;;;52.90;31.70;;;;;;;2.88;83.50;98101.13;224840;1289;22560;-79
2023/10/19 00:56:24;;;;;;;52.90;33.80;;;;;;;2.91;83.43;98096.29;224824;1289;22559;-79
2023/10/19 01:08:41;;;;;;;44.50;28.70;;;;;;;2.86;83.27;98076.09;224773;1289;23073;-78
2023/10/19 01:15:23;;;;;;;;;;;;;;;;;;;;;
2023/10/19 01:21:21;;;;;;;50.10;32.90;;;;;;;2.66;83.02;98049.80;224689;1285;22571;-78
2023/10/19 01:27:23;;;;;;;;;;;;;;;;;;;;;
2023/10/19 01:33:28;;;;;;;;;;;;;;;;;;;;;
2023/10/19 01:39:30;;;;;;;;;;;;;;;;;;;;;
2023/10/19 01:52:51;;;;;;;;;;;;;;;;;;;;;
2023/10/19 01:58:38;;;;;;;45.50;30.90;;;;;;;2.43;83.46;97989.23;224800;1289;22557;-78
2023/10/19 02:04:28;;;;;;;43.40;28.80;;;;;;;2.38;83.88;97980.69;224740;1273;22572;-79
2023/10/19 02:10:11;;;;;;;48.90;31.00;;;;;;;2.34;83.70;97972.38;224871;1289;22574;-79
2023/10/19 02:15:28;;;;;;;43.90;29.90;;;;;;;2.30;83.89;97969.84;224833;1289;22548;-79
2023/10/19 02:20:32;;;;;;;47.80;30.40;;;;;;;2.25;83.77;97961.76;224736;1288;22937;-79
2023/10/19 02:26:22;;;;;;;49.10;32.20;;;;;;;2.18;83.94;97957.05;224781;1289;22570;-79
2023/10/19 02:32:20;;;;;;;;;;;;;;;;;;;;;
2023/10/19 02:38:13;;;;;;;;;;;;;;;;;;;;;
2023/10/19 02:44:00;;;;;;;;;;;;;;;;;;;;;
2023/10/19 02:49:45;;;;;;;46.80;32.20;;;;;;;2.20;84.54;97914.26;224793;1289;22592;-79
2023/10/19 02:55:20;;;;;;;47.80;31.40;;;;;;;2.23;84.58;97895.59;224789;1289;25337;-80
2023/10/19 03:00:55;;;;;;;47.90;29.20;;;;;;;2.22;84.39;97896.00;224785;1289;22562;-79
2023/10/19 03:06:47;;;;;;;42.50;27.80;;;;;;;2.21;84.34;97887.76;224834;1289;22568;-78
2023/10/19 03:12:57;;;;;;;50.30;32.80;;;;;;;2.15;84.19;97869.13;224676;1279;23723;-79
2023/10/19 03:18:27;;;;;;;52.40;32.30;;;;;;;2.16;84.49;97860.02;224775;1289;22643;-79
2023/10/19 03:24:23;;;;;;;45.70;30.40;;;;;;;2.17;84.59;97856.77;224815;1289;22559;-79
2023/10/19 03:30:15;;;;;;;45.40;30.00;;;;;;;2.20;84.65;97855.21;224802;1272;22557;-79
2023/10/19 03:43:00;;;;;;;;;;;;;;;;;;;;;
2023/10/19 03:49:16;;;;;;;42.80;28.80;;;;;;;2.43;85.06;97832.77;224781;1289;22768;-80
2023/10/19 03:55:03;;;;;;;44.90;28.50;;;;;;;2.54;84.94;97815.86;224827;1289;24279;-79
2023/10/19 04:00:51;;;;;;;46.20;28.00;;;;;;;2.66;84.84;97801.40;224821;1289;22700;-80
2023/10/19 04:06:26;;;;;;;43.20;28.30;;;;;;;2.80;85.05;97796.68;224799;1286;22679;-78
2023/10/19 04:12:21;;;;;;;44.00;29.30;;;;;;;2.94;85.00;97787.08;224819;1289;22550;-78
2023/10/19 04:17:54;;;;;;;42.80;29.70;;;;;;;3.03;84.77;97780.64;224800;1289;22615;-79
2023/10/19 04:24:23;;;;;;;43.10;29.10;;;;;;;3.15;84.77;97769.61;224807;1289;22558;-78
2023/10/19 04:30:17;;;;;;;35.70;25.30;;;;;;;3.29;85.00;97757.15;224863;1289;22602;-79
2023/10/19 04:35:55;;;;;;;41.80;28.20;;;;;;;3.40;84.82;97749.12;224861;1289;22633;-78
2023/10/19 04:42:03;;;;;;;40.80;28.50;;;;;;;3.48;84.72;97748.58;224893;1268;22571;-78
2023/10/19 04:48:01;;;;;;;41.80;29.80;;;;;;;3.61;84.74;97740.88;224860;1289;23099;-78
2023/10/19 04:53:38;;;;;;;;;;;;;;;;;;;;;
2023/10/19 04:59:04;;;;;;;39.00;25.90;;;;;;;3.81;84.60;97719.55;224864;1289;23124;-79
2023/10/19 05:05:48;;;;;;;43.60;29.50;;;;;;;3.96;84.66;97706.34;224904;1272;22593;-79
2023/10/19 05:11:52;;;;;;;40.70;28.30;;;;;;;4.03;84.63;97705.91;224855;1289;25343;-79
2023/10/19 05:17:25;;;;;;;46.30;29.70;;;;;;;4.11;84.59;97703.36;224862;1289;22548;-79
2023/10/19 05:23:13;;;;;;;44.20;27.50;;;;;;;4.20;84.61;97706.91;224857;1289;22612;-79
2023/10/19 05:28:38;;;;;;;44.30;28.20;;;;;;;4.29;84.48;97713.23;224844;1286;22552;-79
2023/10/19 05:34:51;;;;;;;42.20;26.90;;;;;;;4.38;84.37;97716.20;224792;1289;22598;-79
2023/10/19 05:40:45;;;;;;;;;;;;;;;;;;;;;
2023/10/19 05:46:37;;;;;;;40.30;27.00;;;;;;;4.57;84.12;97701.94;224806;1286;22567;-79
2023/10/19 05:52:22;;;;;;;;;;;;;;;;;;;;;
2023/10/19 05:57:25;;;;;;;38.20;25.60;;;;;;;4.81;83.92;97696.58;224444;1285;22614;-82
2023/10/19 06:03:20;;;;;;;33.50;25.20;;;;;;;4.95;83.61;97687.87;224388;1283;22578;-80
2023/10/19 06:09:06;;;;;;;34.20;23.20;;;;;;;5.16;83.54;97680.88;224662;1279;24216;-78
2023/10/19 06:14:33;;;;;;;33.80;22.60;;;;;;;5.36;83.44;97680.08;224499;1284;22661;-80
2023/10/19 06:20:11;;;;;;;30.40;21.40;;;;;;;5.47;82.99;97672.56;224498;1282;22609;-79
2023/10/19 06:26:07;;;;;;;;;;;;;;;;;;;;;
2023/10/19 06:31:42;;;;;;;31.40;22.20;;;;;;;5.64;82.83;97656.80;224475;1289;22560;-80
2023/10/19 06:37:31;;;;;;;34.20;22.10;;;;;;;5.73;82.36;97648.33;224365;1289;22654;-80
2023/10/19 06:43:10;;;;;;;29.60;21.60;;;;;;;5.86;82.13;97640.80;224294;1282;26040;-80
2023/10/19 06:49:24;;;;;;;40.50;23.40;;;;;;;6.03;81.84;97623.73;224140;1283;22580;-80
2023/10/19 06:55:23;;;;;;;;;;;;;;;;;;;;;
2023/10/19 07:08:10;;;;;;;34.20;24.20;;;;;;;6.61;81.36;97592.96;223947;1285;22589;-80
2023/10/19 07:20:46;;;;;;;;;;;;;;;;;;;;;
2023/10/19 07:26:41;;;;;;;;;;;;;;;;;;;;;
2023/10/19 07:33:21;;;;;;;27.90;19.90;;;;;;;7.25;80.54;97580.73;224345;1289;22717;-83
2023/10/19 07:39:20;;;;;;;26.50;19.10;;;;;;;7.41;79.69;97569.02;224603;1289;23150;-82
2023/10/19 07:45:21;;;;;;;22.10;18.90;;;;;;;7.54;79.52;97572.27;224741;1289;22539;-82
2023/10/19 07:51:20;;;;;;;24.80;17.60;;;;;;;7.71;79.94;97575.13;224525;1283;22567;-82
2023/10/19 07:57:17;;;;;;;23.20;16.80;;;;;;;7.89;79.60;97569.05;224454;1286;22614;-76
2023/10/19 08:02:30;;;;;;;21.30;16.60;;;;;;;7.98;78.65;97568.73;224173;1283;24222;-78
2023/10/19 08:07:41;;;;;;;23.40;16.60;;;;;;;8.10;78.70;97570.33;223998;1280;25261;-74
2023/10/19 08:12:56;;;;;;;21.10;17.20;;;;;;;8.23;78.31;97548.10;224245;1289;23018;-77
2023/10/19 08:18:12;;;;;;;22.60;16.90;;;;;;;8.39;78.23;97543.02;224308;1289;22576;-75
2023/10/19 08:23:25;;;;;;;38.00;19.30;;;;;;;8.54;78.08;97547.44;224414;1286;22677;-76
2023/10/19 08:29:07;;;;;;;;;;;;;;;;;;;;;
2023/10/19 08:34:20;;;;;;;24.20;18.50;;;;;;;9.00;77.81;97523.45;224763;1289;22555;-77
2023/10/19 08:39:46;;;;;;;27.80;18.70;;;;;;;9.20;77.52;97521.02;224533;1289;22581;-77
2023/10/19 08:44:59;;;;;;;24.50;17.20;;;;;;;9.37;77.35;97512.61;224522;1286;22576;-78
2023/10/19 08:50:24;;;;;;;22.00;16.90;;;;;;;9.43;76.97;97506.10;224446;1289;22634;-79
2023/10/19 08:55:41;;;;;;;;;;;;;;;9.39;76.42;97497.15;224693;1286;22479;-85
2023/10/19 09:01:23;;;;;;;20.10;15.20;;;;;;;9.39;76.43;97481.13;224595;1287;22605;-81
2023/10/19 09:06:49;;;;;;;20.00;16.60;;;;;;;9.44;76.52;97493.88;224745;1288;22671;-80
2023/10/19 09:12:13;;;;;;;25.60;17.50;;;;;;;9.60;76.74;97494.76;224736;1288;22569;-84
2023/10/19 09:17:57;;;;;;;;;;;;;;;;;;;;;
2023/10/19 09:23:07;;;;;;;20.40;16.20;;;;;;;9.82;76.35;97505.42;224619;1288;22549;-82
2023/10/19 09:28:13;;;;;;;21.90;17.20;;;;;;;9.93;76.49;97495.61;224573;1289;22579;-82
2023/10/19 09:33:43;;;;;;;;;;;;;;;;;;;;;
2023/10/19 09:40:16;;;;;;;24.10;17.40;;;;;;;10.12;75.61;97497.46;224765;1289;23243;-82
2023/10/19 09:46:55;;;;;;;24.00;17.10;;;;;;;10.17;75.98;97492.57;224672;1289;23064;-83
2023/10/19 10:00:23;;;;;;;22.80;17.80;;;;;;;10.51;75.83;97449.23;224447;1289;24301;-86
2023/10/19 10:07:00;;;;;;;;;;;;;;;;;;;;;
2023/10/19 10:12:34;;;;;;;23.90;18.90;;;;;;;10.79;75.73;97426.77;224661;1288;25291;-79
2023/10/19 10:25:33;;;;;;;;;;;;;;;;;;;;;
2023/10/19 10:31:52;;;;;;;22.30;16.30;;;;;;;11.23;76.02;97409.02;224323;1290;22726;-81
2023/10/19 10:37:47;;;;;;;;;;;;;;;;;;;;;
2023/10/19 10:43:50;;;;;;;21.20;17.60;;;;;;;11.70;76.41;97380.59;224016;1289;22594;-85
2023/10/19 10:49:10;;;;;;;23.80;17.30;;;;;;;11.94;75.99;97354.64;223919;1286;23346;-85
2023/10/19 10:54:34;;;;;;;25.80;19.80;;;;;;;11.94;75.57;97353.74;222943;1296;22562;-83
2023/10/19 11:00:47;;;;;;;25.10;18.80;;;;;;;11.99;75.40;97348.30;223339;1295;24907;-87
2023/10/19 11:06:33;;;;;;;26.90;19.10;;;;;;;11.96;75.62;97335.02;223437;1277;22561;-83
2023/10/19 11:12:14;;;;;;;21.00;17.50;;;;;;;12.09;76.14;97336.00;223967;1289;24336;-81
2023/10/19 11:17:30;;;;;;;23.50;17.70;;;;;;;12.11;75.92;97332.09;224112;1280;23141;-76
2023/10/19 11:22:47;;;;;;;25.20;18.20;;;;;;;12.04;75.62;97332.62;224245;1285;22595;-78
2023/10/19 11:27:50;;;;;;;21.00;17.00;;;;;;;11.97;76.01;97339.05;224090;1286;22548;-77
2023/10/19 11:33:00;;;;;;;23.80;17.30;;;;;;;11.84;75.82;97327.91;224265;1285;22565;-76
2023/10/19 11:38:47;;;;;;;;;;;;;;;;;;;;;
2023/10/19 11:44:01;;;;;;;21.30;16.90;;;;;;;11.66;76.40;97330.45;224365;1285;25313;-77
2023/10/19 11:49:23;;;;;;;21.90;16.60;;;;;;;11.62;76.64;97329.02;224324;1273;22563;-77
2023/10/19 11:54:54;;;;;;;25.30;16.90;;;;;;;11.66;76.90;97312.49;224157;1285;22966;-77
2023/10/19 12:00:23;;;;;;;22.30;17.10;;;;;;;11.60;76.87;97311.89;224343;1283;22590;-78
2023/10/19 12:05:39;;;;;;;28.00;19.40;;;;;;;11.53;77.11;97306.09;224230;1289;22543;-78
2023/10/19 12:11:01;;;;;;;32.80;24.10;;;;;;;11.33;76.89;97294.14;224204;1289;22611;-78
2023/10/19 12:16:24;;;;;;;;;;;;;;;11.13;77.35;97283.61;224400;1283;22583;-78
2023/10/19 12:21:41;;;;;;;24.80;18.80;;;;;;;11.01;77.85;97279.24;224385;1290;22593;-79
2023/10/19 12:26:50;;;;;;;22.20;17.50;;;;;;;10.88;78.17;97268.38;224489;1286;22585;-78
2023/10/19 12:32:13;;;;;;;26.10;18.70;;;;;;;10.84;78.69;97266.77;224296;1270;22560;-72
2023/10/19 12:37:35;;;;;;;24.80;19.30;;;;;;;10.88;78.97;97265.46;224109;1286;24782;-72
2023/10/19 12:42:38;;;;;;;26.00;20.40;;;;;;;10.94;79.17;97254.20;223942;1292;22739;-74
2023/10/19 12:47:47;;;;;;;24.30;19.90;;;;;;;11.05;79.36;97247.47;224142;1292;22577;-71
2023/10/19 12:52:53;;;;;;;30.30;22.40;;;;;;;11.11;79.22;97244.04;224205;1293;22589;-72
2023/10/19 12:58:29;;;;;;;32.20;23.90;;;;;;;11.13;79.16;97241.33;223993;1292;23446;-72
2023/10/19 13:03:32;;;;;;;28.50;22.30;;;;;;;11.15;79.57;97231.69;224355;1290;22588;-72
2023/10/19 13:08:48;;;;;;;28.90;22.20;;;;;;;11.21;79.49;97220.36;224555;1267;25313;-72
2023/10/19 13:13:55;;;;;;;24.90;20.40;;;;;;;11.18;79.33;97211.27;224429;1282;24283;-73
2023/10/19 13:19:19;;;;;;;;;;;;;;;;;;;;;
2023/10/19 13:24:24;;;;;;;26.30;22.10;;;;;;;10.97;80.04;97192.48;224638;1286;22559;-73
2023/10/19 13:29:29;;;;;;;28.70;23.60;;;;;;;10.92;80.25;97188.90;224658;1283;24251;-73
2023/10/19 13:34:33;;;;;;;28.70;22.90;;;;;;;10.95;80.62;97177.60;224378;1286;22576;-73
2023/10/19 13:39:39;;;;;;;31.50;24.70;;;;;;;10.98;80.57;97157.58;224185;1273;22975;-72
2023/10/19 13:44:45;;;;;;;31.30;23.90;;;;;;;10.98;80.77;97140.83;220354;1267;5451576;-73
2023/10/19 13:49:48;;;;;;;33.30;24.10;;;;;;;10.96;80.78;97138.39;224458;1282;22586;-74
2023/10/19 13:55:04;;;;;;;31.20;24.40;;;;;;;10.93;81.02;97134.00;224496;1269;22602;-75
2023/10/19 14:00:07;;;;;;;32.70;25.30;;;;;;;10.93;81.18;97134.48;224323;1285;24697;-74
2023/10/19 14:05:24;;;;;;;35.90;26.10;;;;;;;10.94;81.38;97145.66;224182;1284;22630;-74
2023/10/19 14:10:34;;;;;;;32.30;25.60;;;;;;;11.01;81.67;97156.05;224418;1286;23134;-73
2023/10/19 14:15:42;;;;;;;31.50;24.10;;;;;;;11.03;81.60;97153.81;224341;1284;22596;-73
2023/10/19 14:20:45;;;;;;;32.00;25.30;;;;;;;11.03;81.71;97153.45;224468;1289;22599;-75
2023/10/19 14:25:49;;;;;;;32.70;26.20;;;;;;;11.05;81.79;97155.75;224397;1289;22922;-72
2023/10/19 14:30:57;;;;;;;34.20;26.70;;;;;;;11.09;82.01;97156.23;224707;1287;23279;-73
2023/10/19 14:36:03;;;;;;;29.80;24.90;;;;;;;11.15;82.12;97161.73;224691;1289;24250;-73
2023/10/19 14:41:06;;;;;;;30.60;25.20;;;;;;;11.12;81.95;97165.55;224727;1289;22700;-74
2023/10/19 14:46:08;;;;;;;31.00;25.00;;;;;;;11.07;81.86;97156.23;224733;1286;22561;-73
2023/10/19 14:51:22;;;;;;;30.30;24.60;;;;;;;11.04;82.13;97147.55;224784;1286;22568;-73
2023/10/19 14:56:35;;;;;;;51.80;28.70;;;;;;;11.03;82.24;97146.58;224769;1289;22580;-73
2023/10/19 15:01:43;;;;;;;39.30;28.00;;;;;;;11.01;82.36;97147.89;224754;1289;22586;-73
2023/10/19 15:06:46;;;;;;;41.40;30.10;;;;;;;10.96;82.31;97140.09;224807;1289;22569;-74
2023/10/19 15:11:48;;;;;;;41.10;31.40;;;;;;;10.92;82.59;97136.46;224805;1286;24264;-73
2023/10/19 15:16:51;;;;;;;64.10;35.50;;;;;;;10.89;82.62;97135.54;224693;1289;22641;-73
2023/10/19 15:22:01;;;;;;;46.80;30.70;;;;;;;10.83;82.74;97127.85;224684;1289;22581;-73
2023/10/19 15:27:03;;;;;;;40.70;29.20;;;;;;;10.72;82.66;97128.71;224781;1277;22556;-74
2023/10/19 15:32:07;;;;;;;56.70;30.80;;;;;;;10.60;82.87;97131.23;224670;1289;22611;-74
2023/10/19 15:37:10;;;;;;;39.30;28.80;;;;;;;10.52;83.14;97122.81;224771;1283;22606;-74
2023/10/19 15:42:17;;;;;;;41.10;28.20;;;;;;;10.46;83.44;97118.06;224821;1285;22562;-74
2023/10/19 15:47:21;;;;;;;47.90;29.70;;;;;;;10.39;83.63;97120.33;224781;1286;22628;-74
2023/10/19 15:52:28;;;;;;;41.80;31.20;;;;;;;10.35;84.05;97111.14;224835;1289;22556;-73
2023/10/19 15:57:40;;;;;;;41.70;32.20;;;;;;;10.31;84.14;97104.98;224908;1283;22546;-73
2023/10/19 16:02:49;;;;;;;35.90;27.70;;;;;;;10.25;84.02;97108.43;224817;1289;22552;-76
2023/10/19 16:07:52;;;;;;;43.50;31.00;;;;;;;10.17;84.29;97100.63;224796;1289;22557;-74
2023/10/19 16:12:57;;;;;;;484.30;77.80;;;;;;;10.10;84.19;97102.63;224813;1286;22609;-73
2023/10/19 16:18:02;;;;;;;284.10;53.20;;;;;;;10.01;84.31;97096.60;224819;1283;22591;-74
2023/10/19 16:23:37;;;;;;;112.80;38.30;;;;;;;9.94;84.49;97103.48;224764;1289;22564;-74
2023/10/19 16:28:41;;;;;;;53.20;29.90;;;;;;;9.90;84.87;97111.21;224593;1289;22702;-74
2023/10/19 16:33:44;;;;;;;41.10;26.80;;;;;;;9.90;85.03;97106.90;224622;1286;23405;-72
2023/10/19 16:38:53;;;;;;;33.80;26.20;;;;;;;9.87;84.90;97108.40;224543;1289;22575;-72
2023/10/19 16:43:58;;;;;;;32.40;25.40;;;;;;;9.83;84.80;97114.55;224598;1291;22537;-74
2023/10/19 16:49:04;;;;;;;49.10;35.00;;;;;;;9.79;85.20;97119.31;224518;1291;22578;-73
2023/10/19 16:54:08;;;;;;;36.20;26.80;;;;;;;9.80;85.48;97113.95;224554;1291;22613;-73
2023/10/19 16:59:18;;;;;;;36.20;25.90;;;;;;;9.79;85.46;97113.19;224689;1282;22662;-73
2023/10/19 17:04:32;;;;;;;38.30;28.40;;;;;;;9.73;85.47;97107.35;224724;1289;22534;-73
2023/10/19 17:09:44;;;;;;;36.70;27.90;;;;;;;9.67;85.49;97101.21;224833;1289;25464;-73
2023/10/19 17:15:00;;;;;;;40.90;29.30;;;;;;;9.65;85.87;97093.08;224823;1285;22560;-73
2023/10/19 17:20:05;;;;;;;41.40;30.80;;;;;;;9.64;86.12;97082.33;224829;1289;23033;-74
2023/10/19 17:25:08;;;;;;;40.40;31.80;;;;;;;9.62;85.90;97083.85;224831;1283;22548;-73
2023/10/19 17:30:13;;;;;;;44.90;33.70;;;;;;;9.58;85.98;97093.91;224694;1286;22549;-74
2023/10/19 17:35:16;;;;;;;43.60;35.10;;;;;;;9.56;86.38;97096.16;224756;1283;22583;-73
2023/10/19 17:40:19;;;;;;;47.60;35.30;;;;;;;9.54;86.48;97094.23;224814;1289;22567;-73
2023/10/19 17:45:24;;;;;;;46.30;35.30;;;;;;;9.56;86.47;97082.46;224795;1286;25286;-73
2023/10/19 17:50:31;;;;;;;53.20;37.10;;;;;;;9.59;86.94;97081.95;224741;1289;22566;-73
2023/10/19 17:55:35;;;;;;;52.60;38.50;;;;;;;9.60;86.68;97073.77;224860;1282;23358;-72
2023/10/19 18:00:41;;;;;;;50.40;37.60;;;;;;;9.59;86.60;97063.56;224841;1286;22561;-72
2023/10/19 18:06:06;;;;;;;52.80;41.40;;;;;;;9.60;86.89;97075.40;224781;1289;22560;-74
2023/10/19 18:11:18;;;;;;;52.90;36.80;;;;;;;9.64;87.12;97069.65;224827;1289;22560;-74
2023/10/19 18:16:23;;;;;;;62.00;45.20;;;;;;;9.66;87.07;97065.88;224758;1288;22584;-73
2023/10/19 18:21:29;;;;;;;57.30;42.10;;;;;;;9.70;87.18;97059.67;224806;1289;22604;-73
2023/10/19 18:26:31;;;;;;;59.60;45.50;;;;;;;9.70;86.97;97056.62;224801;1286;24231;-73
2023/10/19 18:31:35;;;;;;;58.40;44.40;;;;;;;9.70;87.31;97055.08;224772;1289;22566;-74
2023/10/19 18:36:40;;;;;;;56.60;42.40;;;;;;;9.73;87.28;97050.55;224792;1286;22583;-73
2023/10/19 18:41:50;;;;;;;57.10;42.50;;;;;;;9.77;87.19;97051.64;224777;1289;22595;-73
2023/10/19 18:46:57;;;;;;;54.30;40.80;;;;;;;9.80;87.32;97060.13;224875;1283;22563;-73
2023/10/19 18:52:19;;;;;;;;;;;;;;;;;;;;;
2023/10/19 18:58:07;;;;;;;48.60;36.50;;;;;;;9.84;87.11;97036.77;224835;1272;22566;-73
2023/10/19 19:03:13;;;;;;;49.70;37.70;;;;;;;9.86;87.29;97034.77;224726;1289;22645;-73
2023/10/19 19:08:16;;;;;;;55.40;42.10;;;;;;;9.83;87.32;97033.63;224765;1289;22549;-73
2023/10/19 19:13:33;;;;;;;53.00;39.60;;;;;;;9.81;87.16;97029.84;224777;1286;22552;-74
2023/10/19 19:18:46;;;;;;;54.70;39.80;;;;;;;9.79;86.92;97025.27;224765;1289;24258;-73
2023/10/19 19:23:52;;;;;;;56.60;40.60;;;;;;;9.78;87.34;97015.49;224730;1289;22669;-73
2023/10/19 19:28:55;;;;;;;54.30;40.80;;;;;;;9.80;87.50;97020.68;224773;1289;22535;-73
2023/10/19 19:33:58;;;;;;;61.70;44.40;;;;;;;9.81;87.58;97017.38;224715;1289;22687;-73
2023/10/19 19:39:01;;;;;;;64.40;47.20;;;;;;;9.84;87.72;97012.77;224797;1282;22601;-73
2023/10/19 19:44:03;;;;;;;66.80;46.80;;;;;;;9.88;87.56;96998.21;224703;1289;22552;-73
2023/10/19 19:49:09;;;;;;;72.20;50.50;;;;;;;9.92;87.64;96988.59;224847;1286;22933;-74
2023/10/19 19:54:15;;;;;;;72.70;49.50;;;;;;;9.95;87.88;96973.63;224758;1286;23316;-73
2023/10/19 19:59:18;;;;;;;83.20;55.60;;;;;;;9.98;87.63;96953.85;224753;1283;24202;-74
2023/10/19 20:04:25;;;;;;;84.90;58.40;;;;;;;9.98;87.46;96952.59;224686;1289;22550;-73
2023/10/19 20:09:33;;;;;;;71.70;49.90;;;;;;;9.98;87.46;96952.91;224803;1286;22587;-73
2023/10/19 20:14:36;;;;;;;68.30;48.20;;;;;;;9.97;87.40;96944.21;224846;1283;22552;-73
2023/10/19 20:19:40;;;;;;;66.70;48.10;;;;;;;9.98;87.61;96924.19;224815;1289;22552;-74
2023/10/19 20:24:47;;;;;;;65.10;44.60;;;;;;;9.99;87.63;96924.70;224825;1286;22575;-73
2023/10/19 20:29:54;;;;;;;65.50;47.50;;;;;;;10.01;87.77;96924.58;224805;1286;24532;-74
2023/10/19 20:34:56;;;;;;;63.20;47.00;;;;;;;10.02;87.49;96924.13;224781;1286;25437;-73
2023/10/19 20:40:08;;;;;;;65.90;46.60;;;;;;;10.02;87.64;96902.36;224795;1288;25923;-74
2023/10/19 20:45:19;;;;;;;67.20;46.60;;;;;;;10.02;87.51;96883.98;224827;1283;22594;-73
2023/10/19 20:50:24;;;;;;;60.50;45.20;;;;;;;10.00;87.58;96886.33;224829;1286;22506;-74
2023/10/19 20:55:52;;;;;;;;;;;;;;;9.99;87.73;96889.35;224850;1289;22541;-74
2023/10/19 21:01:12;;;;;;;64.80;47.20;;;;;;;9.98;87.77;96851.17;224848;1283;22632;-74
2023/10/19 21:06:17;;;;;;;70.30;49.50;;;;;;;9.98;87.86;96849.27;224792;1289;22535;-74
2023/10/19 21:11:28;;;;;;;72.90;49.00;;;;;;;9.99;87.96;96869.13;224797;1286;22665;-72
2023/10/19 21:16:38;;;;;;;65.00;47.60;;;;;;;9.99;88.08;96844.77;224770;1289;22550;-72
2023/10/19 21:21:53;;;;;;;65.10;46.20;;;;;;;10.01;87.96;96842.96;224718;1289;22583;-74
2023/10/19 21:27:25;;;;;;;67.80;50.30;;;;;;;10.01;88.00;96853.55;224752;1289;22582;-73
2023/10/19 21:33:13;;;;;;;68.10;48.80;;;;;;;10.01;88.13;96853.84;224717;1289;25974;-72
2023/10/19 21:39:09;;;;;;;;;;;;;;;;;;;;;
2023/10/19 21:44:37;;;;;;;73.20;51.50;;;;;;;10.05;88.15;96876.30;224741;1289;22556;-72
2023/10/19 21:50:05;;;;;;;65.90;48.90;;;;;;;10.06;88.04;96879.28;224806;1289;22500;-73
2023/10/19 21:55:43;;;;;;;70.30;50.40;;;;;;;10.06;88.13;96880.13;224827;1289;22577;-73
2023/10/19 22:01:08;;;;;;;70.20;51.00;;;;;;;10.11;88.37;96864.55;224826;1289;25371;-73
2023/10/19 22:06:13;;;;;;;67.60;51.20;;;;;;;10.17;88.43;96850.29;224822;1285;22564;-73
2023/10/19 22:11:21;;;;;;;67.00;49.20;;;;;;;10.22;88.40;96841.60;224822;1286;22551;-72
2023/10/19 22:16:24;;;;;;;68.00;49.80;;;;;;;10.24;88.30;96844.68;224822;1289;22562;-73
2023/10/19 22:21:46;;;;;;;;;;;;;;;;;;;;;
2023/10/19 22:27:18;;;;;;;62.70;46.70;;;;;;;10.23;87.97;96838.51;224844;1286;22575;-73
2023/10/19 22:32:32;;;;;;;69.80;50.20;;;;;;;10.21;88.02;96834.41;224864;1289;22559;-72
2023/10/19 22:37:41;;;;;;;64.50;47.80;;;;;;;10.23;88.00;96826.85;224866;1286;22552;-73
2023/10/19 22:42:56;;;;;;;61.90;44.80;;;;;;;10.25;88.17;96819.61;224815;1289;25956;-73
2023/10/19 22:48:02;;;;;;;57.10;43.60;;;;;;;10.22;87.94;96830.73;224699;1289;22559;-73
2023/10/19 22:53:29;;;;;;;59.20;43.50;;;;;;;10.18;88.03;96825.97;224827;1289;22559;-73
2023/10/19 22:58:57;;;;;;;;;;;;;;;;;;;;;
2023/10/19 23:04:14;;;;;;;;;;;;;;;;;;;;;
2023/10/19 23:09:41;;;;;;;;;;;;;;;;;;;;;
2023/10/19 23:15:26;;;;;;;;;;;;;;;;;;;;;
2023/10/19 23:20:32;;;;;;;53.20;40.10;;;;;;;10.07;88.25;96816.83;224839;1289;22568;-73
2023/10/19 23:25:52;;;;;;;49.80;38.70;;;;;;;10.05;88.33;96807.65;224824;1289;22543;-73
2023/10/19 23:31:01;;;;;;;55.40;40.20;;;;;;;10.06;88.46;96800.17;224839;1283;22599;-74
2023/10/19 23:36:49;;;;;;;55.40;41.10;;;;;;;10.08;88.66;96796.36;224735;1289;22572;-73
2023/10/19 23:41:58;;;;;;;;;;;;;;;10.12;88.56;96797.48;224777;1289;22661;-73
2023/10/19 23:47:16;;;;;;;58.60;42.70;;;;;;;10.13;88.49;96809.92;224820;1289;25445;-73
2023/10/19 23:52:38;;;;;;;;;;;;;;;;;;;;;
2023/10/19 23:57:45;;;;;;;54.40;41.30;;;;;;;10.07;88.57;96807.65;224784;1283;22589;-73
